sensor_id;sensor_type;location;lat;lon;timestamp;pressure;altitude;pressure_sealevel;temperature;humidity
74103;BME280;62463;46.166;3.640;2022-07-23T18:47:56;97166.13;;;26.14;45.75
74103;BME280;62463;46.166;3.640;2022-07-23T18:50:22;97162.91;;;26.12;45.76
74103;BME280;62463;46.166;3.640;2022-07-23T18:52:48;97163.72;;;26.07;45.62
74103;BME280;62463;46.166;3.640;2022-07-23T18:55:14;97162.94;;;26.02;45.91
74103;BME280;62463;46.166;3.640;2022-07-23T18:57:40;97162.97;;;25.96;46.10
74103;BME280;62463;46.166;3.640;2022-07-23T19:00:08;97164.31;;;25.99;46.02
74103;BME280;62463;46.166;3.640;2022-07-23T19:02:34;97168.88;;;26.04;46.34
74103;BME280;62463;46.166;3.640;2022-07-23T19:05:00;97166.44;;;26.07;45.81
74103;BME280;62463;46.166;3.640;2022-07-23T19:07:26;97168.31;;;26.12;46.05
74103;BME280;62463;46.166;3.640;2022-07-23T19:09:52;97177.47;;;26.16;46.18
74103;BME280;62463;46.166;3.640;2022-07-23T19:12:17;97181.78;;;26.17;46.16
74103;BME280;62463;46.166;3.640;2022-07-23T19:14:43;97185.56;;;26.16;46.34
74103;BME280;62463;46.166;3.640;2022-07-23T19:17:09;97191.50;;;26.18;46.16
74103;BME280;62463;46.166;3.640;2022-07-23T19:19:35;97181.78;;;26.17;46.01
74103;BME280;62463;46.166;3.640;2022-07-23T19:22:00;97185.81;;;26.20;46.13
74103;BME280;62463;46.166;3.640;2022-07-23T19:24:27;97186.63;;;26.15;46.34
74103;BME280;62463;46.166;3.640;2022-07-23T19:26:53;97189.63;;;26.08;46.98
74103;BME280;62463;46.166;3.640;2022-07-23T19:29:19;97188.56;;;26.04;46.54
74103;BME280;62463;46.166;3.640;2022-07-23T19:31:44;97194.50;;;26.01;46.49
74103;BME280;62463;46.166;3.640;2022-07-23T19:34:10;97194.50;;;26.01;46.71
74103;BME280;62463;46.166;3.640;2022-07-23T19:36:37;97194.53;;;25.96;47.08
74103;BME280;62463;46.166;3.640;2022-07-23T19:39:04;97189.91;;;25.91;46.99
74103;BME280;62463;46.166;3.640;2022-07-23T19:41:30;97193.97;;;25.89;47.48
74103;BME280;62463;46.166;3.640;2022-07-23T19:43:58;97200.16;;;25.89;47.27
74103;BME280;62463;46.166;3.640;2022-07-23T19:46:25;97198.81;;;25.87;47.17
74103;BME280;62463;46.166;3.640;2022-07-23T19:48:51;97202.06;;;25.84;47.68
74103;BME280;62463;46.166;3.640;2022-07-23T19:51:16;97200.16;;;25.89;47.66
74103;BME280;62463;46.166;3.640;2022-07-23T19:53:42;97212.28;;;25.92;47.70
74103;BME280;62463;46.166;3.640;2022-07-23T19:56:08;97209.88;;;25.95;47.53
74103;BME280;62463;46.166;3.640;2022-07-23T19:58:34;97208.81;;;25.96;47.53
74103;BME280;62463;46.166;3.640;2022-07-23T20:00:59;97216.34;;;25.99;47.53
74103;BME280;62463;46.166;3.640;2022-07-23T20:03:25;97220.69;;;26.01;47.42
74103;BME280;62463;46.166;3.640;2022-07-23T20:05:51;97219.31;;;26.03;47.66
74103;BME280;62463;46.166;3.640;2022-07-23T20:08:17;97220.09;;;26.04;47.45
74103;BME280;62463;46.166;3.640;2022-07-23T20:10:43;97223.91;;;26.03;47.77
74103;BME280;62463;46.166;3.640;2022-07-23T20:13:09;97232.78;;;26.03;47.75
74103;BME280;62463;46.166;3.640;2022-07-23T20:15:34;97239.56;;;26.01;47.97
74103;BME280;62463;46.166;3.640;2022-07-23T20:18:00;97241.69;;;26.04;47.78
74103;BME280;62463;46.166;3.640;2022-07-23T20:20:26;97230.91;;;26.04;48.30
74103;BME280;62463;46.166;3.640;2022-07-23T20:22:53;97234.69;;;26.03;48.25
74103;BME280;62463;46.166;3.640;2022-07-23T20:25:18;97236.28;;;26.04;48.08
74103;BME280;62463;46.166;3.640;2022-07-23T20:27:44;97230.91;;;26.04;48.19
74103;BME280;62463;46.166;3.640;2022-07-23T20:30:10;97239.81;;;26.04;48.04
74103;BME280;62463;46.166;3.640;2022-07-23T20:32:37;97238.97;;;26.04;47.90
74103;BME280;62463;46.166;3.640;2022-07-23T20:35:06;97235.50;;;26.03;48.29
74103;BME280;62463;46.166;3.640;2022-07-23T20:37:37;97236.28;;;26.04;48.23
74103;BME280;62463;46.166;3.640;2022-07-23T20:40:03;97234.69;;;26.03;48.14
74103;BME280;62463;46.166;3.640;2022-07-23T20:42:29;97232.78;;;26.03;48.38
74103;BME280;62463;46.166;3.640;2022-07-23T20:44:55;97234.69;;;26.03;48.29
74103;BME280;62463;46.166;3.640;2022-07-23T20:47:21;97243.03;;;26.01;48.01
74103;BME280;62463;46.166;3.640;2022-07-23T20:49:47;97247.66;;;26.01;48.37
74103;BME280;62463;46.166;3.640;2022-07-23T20:52:13;97246.81;;;26.00;48.27
74103;BME280;62463;46.166;3.640;2022-07-23T20:54:39;97245.22;;;25.99;48.22
74103;BME280;62463;46.166;3.640;2022-07-23T20:57:05;97244.38;;;25.98;48.11
74103;BME280;62463;46.166;3.640;2022-07-23T20:59:31;97237.41;;;25.97;48.22
74103;BME280;62463;46.166;3.640;2022-07-23T21:01:56;97238.47;;;25.96;48.50
74103;BME280;62463;46.166;3.640;2022-07-23T21:04:22;97234.13;;;25.95;48.24
74103;BME280;62463;46.166;3.640;2022-07-23T21:06:48;97237.09;;;25.94;48.63
74103;BME280;62463;46.166;3.640;2022-07-23T21:09:14;97233.59;;;25.93;48.41
74103;BME280;62463;46.166;3.640;2022-07-23T21:11:39;97232.78;;;25.93;48.64
74103;BME280;62463;46.166;3.640;2022-07-23T21:14:05;97240.06;;;25.92;48.76
74103;BME280;62463;46.166;3.640;2022-07-23T21:16:31;97236.53;;;25.92;48.58
74103;BME280;62463;46.166;3.640;2022-07-23T21:18:56;97239.50;;;25.90;48.71
74103;BME280;62463;46.166;3.640;2022-07-23T21:21:22;97251.41;;;25.89;48.54
74103;BME280;62463;46.166;3.640;2022-07-23T21:23:49;97246.00;;;25.89;48.45
74103;BME280;62463;46.166;3.640;2022-07-23T21:26:18;97247.06;;;25.88;48.91
74103;BME280;62463;46.166;3.640;2022-07-23T21:28:44;97245.47;;;25.87;48.54
74103;BME280;62463;46.166;3.640;2022-07-23T21:31:10;97243.84;;;25.86;48.61
74103;BME280;62463;46.166;3.640;2022-07-23T21:33:37;97255.44;;;25.87;48.85
74103;BME280;62463;46.166;3.640;2022-07-23T21:36:03;97250.31;;;25.85;48.95
74103;BME280;62463;46.166;3.640;2022-07-23T21:38:29;97254.09;;;25.84;48.63
74103;BME280;62463;46.166;3.640;2022-07-23T21:40:56;97252.47;;;25.83;48.65
74103;BME280;62463;46.166;3.640;2022-07-23T21:43:22;97263.53;;;25.81;48.60
74103;BME280;62463;46.166;3.640;2022-07-23T21:45:49;97252.22;;;25.79;48.51
74103;BME280;62463;46.166;3.640;2022-07-23T21:48:15;97260.03;;;25.81;48.77
74103;BME280;62463;46.166;3.640;2022-07-23T21:50:41;97261.09;;;25.80;49.02
74103;BME280;62463;46.166;3.640;2022-07-23T21:53:06;97255.44;;;25.76;48.93
74103;BME280;62463;46.166;3.640;2022-07-23T21:55:32;97264.88;;;25.74;48.74
74103;BME280;62463;46.166;3.640;2022-07-23T21:57:58;97254.38;;;25.72;48.84
74103;BME280;62463;46.166;3.640;2022-07-23T22:00:28;97255.72;;;25.70;49.04
74103;BME280;62463;46.166;3.640;2022-07-23T22:02:56;97262.19;;;25.69;48.83
74103;BME280;62463;46.166;3.640;2022-07-23T22:05:23;97263.53;;;25.66;49.00
74103;BME280;62463;46.166;3.640;2022-07-23T22:07:49;97268.38;;;25.64;48.98
74103;BME280;62463;46.166;3.640;2022-07-23T22:10:16;97261.63;;;25.61;49.11
74103;BME280;62463;46.166;3.640;2022-07-23T22:12:42;97263.81;;;25.59;49.15
74103;BME280;62463;46.166;3.640;2022-07-23T22:15:10;97270.56;;;25.57;49.00
74103;BME280;62463;46.166;3.640;2022-07-23T22:17:37;97267.03;;;25.56;49.24
74103;BME280;62463;46.166;3.640;2022-07-23T22:20:03;97264.06;;;25.53;48.93
74103;BME280;62463;46.166;3.640;2022-07-23T22:22:30;97262.47;;;25.52;48.93
74103;BME280;62463;46.166;3.640;2022-07-23T22:24:55;97266.22;;;25.51;48.90
74103;BME280;62463;46.166;3.640;2022-07-23T22:27:21;97270.00;;;25.50;49.26
74103;BME280;62463;46.166;3.640;2022-07-23T22:29:47;97265.97;;;25.47;49.27
74103;BME280;62463;46.166;3.640;2022-07-23T22:32:13;97275.13;;;25.46;49.27
74103;BME280;62463;46.166;3.640;2022-07-23T22:34:38;97275.38;;;25.44;49.17
74103;BME280;62463;46.166;3.640;2022-07-23T22:37:04;97275.63;;;25.43;48.97
74103;BME280;62463;46.166;3.640;2022-07-23T22:39:30;97274.03;;;25.42;49.10
74103;BME280;62463;46.166;3.640;2022-07-23T22:41:58;97271.88;;;25.39;49.40
74103;BME280;62463;46.166;3.640;2022-07-23T22:44:24;97267.56;;;25.38;49.27
74103;BME280;62463;46.166;3.640;2022-07-23T22:46:49;97272.16;;;25.37;49.36
74103;BME280;62463;46.166;3.640;2022-07-23T22:49:15;97269.72;;;25.36;49.19
74103;BME280;62463;46.166;3.640;2022-07-23T22:51:41;97258.41;;;25.34;49.35
74103;BME280;62463;46.166;3.640;2022-07-23T22:54:07;97262.16;;;25.33;49.15
74103;BME280;62463;46.166;3.640;2022-07-23T22:56:33;97255.44;;;25.30;49.04
74103;BME280;62463;46.166;3.640;2022-07-23T22:58:58;97258.13;;;25.30;49.07
74103;BME280;62463;46.166;3.640;2022-07-23T23:01:24;97259.47;;;25.28;49.06
74103;BME280;62463;46.166;3.640;2022-07-23T23:03:50;97255.97;;;25.27;49.36
74103;BME280;62463;46.166;3.640;2022-07-23T23:06:16;97249.19;;;25.24;49.31
74103;BME280;62463;46.166;3.640;2022-07-23T23:08:42;97252.97;;;25.23;49.22
74103;BME280;62463;46.166;3.640;2022-07-23T23:11:07;97253.25;;;25.22;49.21
74103;BME280;62463;46.166;3.640;2022-07-23T23:13:33;97251.63;;;25.21;49.36
74103;BME280;62463;46.166;3.640;2022-07-23T23:15:59;97259.16;;;25.19;49.40
74103;BME280;62463;46.166;3.640;2022-07-23T23:18:25;97256.72;;;25.17;49.10
74103;BME280;62463;46.166;3.640;2022-07-23T23:20:50;97253.50;;;25.15;49.36
74103;BME280;62463;46.166;3.640;2022-07-23T23:23:16;97259.94;;;25.14;49.19
74103;BME280;62463;46.166;3.640;2022-07-23T23:25:42;97254.03;;;25.12;49.37
74103;BME280;62463;46.166;3.640;2022-07-23T23:28:08;97256.72;;;25.12;49.44
74103;BME280;62463;46.166;3.640;2022-07-23T23:30:33;97248.91;;;25.11;49.27
74103;BME280;62463;46.166;3.640;2022-07-23T23:32:59;97254.56;;;25.09;49.24
74103;BME280;62463;46.166;3.640;2022-07-23T23:35:25;97244.03;;;25.07;49.30
74103;BME280;62463;46.166;3.640;2022-07-23T23:37:51;97251.84;;;25.04;49.14
74103;BME280;62463;46.166;3.640;2022-07-23T23:40:16;97244.88;;;25.03;49.37
74103;BME280;62463;46.166;3.640;2022-07-23T23:42:42;97247.56;;;25.03;49.61
74103;BME280;62463;46.166;3.640;2022-07-23T23:45:09;97253.22;;;25.01;49.46
74103;BME280;62463;46.166;3.640;2022-07-23T23:47:35;97244.59;;;24.99;49.40
74103;BME280;62463;46.166;3.640;2022-07-23T23:50:02;97252.94;;;24.98;49.69
74103;BME280;62463;46.166;3.640;2022-07-23T23:52:28;97248.63;;;24.97;49.36
74103;BME280;62463;46.166;3.640;2022-07-23T23:54:53;97247.00;;;24.96;49.49
74103;BME280;62463;46.166;3.640;2022-07-23T23:57:19;97249.13;;;24.94;49.23
74103;BME280;62463;46.166;3.640;2022-07-23T23:59:45;97255.63;;;24.93;49.60
